sensor_id;sensor_type;location;lat;lon;timestamp;temperature;humidity
78793;SHT31;68134;51.984;5.652;2023-05-07T00:00:36;18.0;69.9
78793;SHT31;68134;51.984;5.652;2023-05-07T00:03:05;17.9;69.6
78793;SHT31;68134;51.984;5.652;2023-05-07T00:05:33;17.9;69.6
78793;SHT31;68134;51.984;5.652;2023-05-07T00:08:02;17.9;70.0
78793;SHT31;68134;51.984;5.652;2023-05-07T00:10:31;17.8;70.5
78793;SHT31;68134;51.984;5.652;2023-05-07T00:12:59;17.8;69.9
78793;SHT31;68134;51.984;5.652;2023-05-07T00:15:28;17.8;69.9
78793;SHT31;68134;51.984;5.652;2023-05-07T00:17:56;17.8;69.9
78793;SHT31;68134;51.984;5.652;2023-05-07T00:20:25;17.7;70.0
78793;SHT31;68134;51.984;5.652;2023-05-07T00:22:54;17.7;70.0
78793;SHT31;68134;51.984;5.652;2023-05-07T00:25:22;17.7;70.0
78793;SHT31;68134;51.984;5.652;2023-05-07T00:27:53;17.7;70.3
78793;SHT31;68134;51.984;5.652;2023-05-07T00:30:21;17.6;69.9
78793;SHT31;68134;51.984;5.652;2023-05-07T00:32:50;17.6;69.7
78793;SHT31;68134;51.984;5.652;2023-05-07T00:35:21;17.6;69.6
78793;SHT31;68134;51.984;5.652;2023-05-07T00:37:50;17.6;69.6
78793;SHT31;68134;51.984;5.652;2023-05-07T00:40:18;17.5;69.5
78793;SHT31;68134;51.984;5.652;2023-05-07T00:42:48;17.5;69.6
78793;SHT31;68134;51.984;5.652;2023-05-07T00:45:17;17.5;69.9
78793;SHT31;68134;51.984;5.652;2023-05-07T00:47:49;17.4;69.9
78793;SHT31;68134;51.984;5.652;2023-05-07T00:50:17;17.4;70.3
78793;SHT31;68134;51.984;5.652;2023-05-07T00:52:47;17.4;70.4
78793;SHT31;68134;51.984;5.652;2023-05-07T00:55:16;17.3;70.7
78793;SHT31;68134;51.984;5.652;2023-05-07T00:57:45;17.3;70.8
78793;SHT31;68134;51.984;5.652;2023-05-07T01:00:14;17.3;70.9
78793;SHT31;68134;51.984;5.652;2023-05-07T01:02:45;17.3;71.2
78793;SHT31;68134;51.984;5.652;2023-05-07T01:05:17;17.2;71.6
78793;SHT31;68134;51.984;5.652;2023-05-07T01:07:47;17.2;71.3
78793;SHT31;68134;51.984;5.652;2023-05-07T01:10:17;17.2;71.2
78793;SHT31;68134;51.984;5.652;2023-05-07T01:12:48;17.2;71.4
78793;SHT31;68134;51.984;5.652;2023-05-07T01:15:18;17.3;71.6
78793;SHT31;68134;51.984;5.652;2023-05-07T01:17:49;17.3;71.4
78793;SHT31;68134;51.984;5.652;2023-05-07T01:20:18;17.3;71.3
78793;SHT31;68134;51.984;5.652;2023-05-07T01:22:49;17.3;71.6
78793;SHT31;68134;51.984;5.652;2023-05-07T01:25:18;17.3;71.5
78793;SHT31;68134;51.984;5.652;2023-05-07T01:27:47;17.3;71.8
78793;SHT31;68134;51.984;5.652;2023-05-07T01:30:16;17.3;71.6
78793;SHT31;68134;51.984;5.652;2023-05-07T01:32:52;17.3;72.1
78793;SHT31;68134;51.984;5.652;2023-05-07T01:35:24;17.3;72.0
78793;SHT31;68134;51.984;5.652;2023-05-07T01:37:54;17.3;71.4
78793;SHT31;68134;51.984;5.652;2023-05-07T01:40:24;17.3;71.9
78793;SHT31;68134;51.984;5.652;2023-05-07T01:42:54;17.3;71.3
78793;SHT31;68134;51.984;5.652;2023-05-07T01:45:23;17.3;71.3
78793;SHT31;68134;51.984;5.652;2023-05-07T01:47:53;17.3;71.2
78793;SHT31;68134;51.984;5.652;2023-05-07T01:50:21;17.3;70.9
78793;SHT31;68134;51.984;5.652;2023-05-07T01:52:52;17.3;71.0
78793;SHT31;68134;51.984;5.652;2023-05-07T01:55:20;17.3;71.1
78793;SHT31;68134;51.984;5.652;2023-05-07T01:57:51;17.3;71.3
78793;SHT31;68134;51.984;5.652;2023-05-07T02:00:20;17.3;71.0
78793;SHT31;68134;51.984;5.652;2023-05-07T02:02:49;17.3;71.6
78793;SHT31;68134;51.984;5.652;2023-05-07T02:05:19;17.3;71.6
78793;SHT31;68134;51.984;5.652;2023-05-07T02:07:47;17.3;71.5
78793;SHT31;68134;51.984;5.652;2023-05-07T02:10:16;17.3;71.2
78793;SHT31;68134;51.984;5.652;2023-05-07T02:12:44;17.3;71.7
78793;SHT31;68134;51.984;5.652;2023-05-07T02:15:13;17.3;71.5
78793;SHT31;68134;51.984;5.652;2023-05-07T02:18:02;17.3;71.3
78793;SHT31;68134;51.984;5.652;2023-05-07T02:20:32;17.4;70.9
78793;SHT31;68134;51.984;5.652;2023-05-07T02:23:03;17.4;71.6
78793;SHT31;68134;51.984;5.652;2023-05-07T02:25:32;17.4;71.2
78793;SHT31;68134;51.984;5.652;2023-05-07T02:28:00;17.4;70.5
78793;SHT31;68134;51.984;5.652;2023-05-07T02:30:29;17.4;71.2
78793;SHT31;68134;51.984;5.652;2023-05-07T02:32:58;17.4;71.3
78793;SHT31;68134;51.984;5.652;2023-05-07T02:35:26;17.4;71.3
78793;SHT31;68134;51.984;5.652;2023-05-07T02:37:55;17.4;71.1
78793;SHT31;68134;51.984;5.652;2023-05-07T02:40:24;17.4;71.6
78793;SHT31;68134;51.984;5.652;2023-05-07T02:42:52;17.4;71.5
78793;SHT31;68134;51.984;5.652;2023-05-07T02:45:21;17.4;71.9
78793;SHT31;68134;51.984;5.652;2023-05-07T02:47:49;17.4;72.0
78793;SHT31;68134;51.984;5.652;2023-05-07T02:50:18;17.4;71.2
78793;SHT31;68134;51.984;5.652;2023-05-07T02:52:46;17.4;71.4
78793;SHT31;68134;51.984;5.652;2023-05-07T02:55:15;17.3;71.9
78793;SHT31;68134;51.984;5.652;2023-05-07T02:57:43;17.3;71.4
78793;SHT31;68134;51.984;5.652;2023-05-07T03:00:14;17.3;71.4
78793;SHT31;68134;51.984;5.652;2023-05-07T03:02:42;17.3;71.6
78793;SHT31;68134;51.984;5.652;2023-05-07T03:05:11;17.3;71.9
78793;SHT31;68134;51.984;5.652;2023-05-07T03:07:42;17.3;71.7
78793;SHT31;68134;51.984;5.652;2023-05-07T03:10:12;17.3;71.7
78793;SHT31;68134;51.984;5.652;2023-05-07T03:12:42;17.3;71.7
78793;SHT31;68134;51.984;5.652;2023-05-07T03:15:11;17.3;71.8
78793;SHT31;68134;51.984;5.652;2023-05-07T03:17:39;17.3;71.1
78793;SHT31;68134;51.984;5.652;2023-05-07T03:20:09;17.3;71.3
78793;SHT31;68134;51.984;5.652;2023-05-07T03:22:37;17.2;71.7
78793;SHT31;68134;51.984;5.652;2023-05-07T03:25:07;17.2;71.1
78793;SHT31;68134;51.984;5.652;2023-05-07T03:27:36;17.2;71.5
78793;SHT31;68134;51.984;5.652;2023-05-07T03:30:05;17.2;71.3
78793;SHT31;68134;51.984;5.652;2023-05-07T03:32:35;17.2;71.0
78793;SHT31;68134;51.984;5.652;2023-05-07T03:35:04;17.2;70.7
78793;SHT31;68134;51.984;5.652;2023-05-07T03:37:33;17.2;70.7
78793;SHT31;68134;51.984;5.652;2023-05-07T03:40:02;17.1;71.1
78793;SHT31;68134;51.984;5.652;2023-05-07T03:42:31;17.1;71.2
78793;SHT31;68134;51.984;5.652;2023-05-07T03:45:00;17.1;70.6
78793;SHT31;68134;51.984;5.652;2023-05-07T03:47:28;17.1;71.1
78793;SHT31;68134;51.984;5.652;2023-05-07T03:49:57;17.1;71.2
78793;SHT31;68134;51.984;5.652;2023-05-07T03:52:25;17.1;72.1
78793;SHT31;68134;51.984;5.652;2023-05-07T03:54:54;17.1;71.0
78793;SHT31;68134;51.984;5.652;2023-05-07T03:57:24;17.0;71.3
78793;SHT31;68134;51.984;5.652;2023-05-07T03:59:53;17.0;71.9
78793;SHT31;68134;51.984;5.652;2023-05-07T04:02:21;17.0;71.6
78793;SHT31;68134;51.984;5.652;2023-05-07T04:04:50;17.0;72.0
78793;SHT31;68134;51.984;5.652;2023-05-07T04:07:18;17.0;71.6
78793;SHT31;68134;51.984;5.652;2023-05-07T04:09:47;17.0;71.9
78793;SHT31;68134;51.984;5.652;2023-05-07T04:12:16;17.0;72.4
78793;SHT31;68134;51.984;5.652;2023-05-07T04:14:45;17.0;72.1
78793;SHT31;68134;51.984;5.652;2023-05-07T04:17:13;17.1;72.3
78793;SHT31;68134;51.984;5.652;2023-05-07T04:19:41;17.1;72.6
78793;SHT31;68134;51.984;5.652;2023-05-07T04:22:11;17.1;72.1
78793;SHT31;68134;51.984;5.652;2023-05-07T04:24:40;17.1;72.6
78793;SHT31;68134;51.984;5.652;2023-05-07T04:27:08;17.1;72.0
78793;SHT31;68134;51.984;5.652;2023-05-07T04:29:37;17.1;72.6
78793;SHT31;68134;51.984;5.652;2023-05-07T04:32:08;17.1;72.3
78793;SHT31;68134;51.984;5.652;2023-05-07T04:34:37;17.2;71.6
78793;SHT31;68134;51.984;5.652;2023-05-07T04:37:05;17.2;71.2
78793;SHT31;68134;51.984;5.652;2023-05-07T04:39:34;17.2;71.4
78793;SHT31;68134;51.984;5.652;2023-05-07T04:42:04;17.2;72.0
78793;SHT31;68134;51.984;5.652;2023-05-07T04:44:33;17.2;71.9
78793;SHT31;68134;51.984;5.652;2023-05-07T04:47:03;17.2;71.7
78793;SHT31;68134;51.984;5.652;2023-05-07T04:49:32;17.2;71.1
78793;SHT31;68134;51.984;5.652;2023-05-07T04:52:00;17.2;71.8
78793;SHT31;68134;51.984;5.652;2023-05-07T04:54:29;17.2;72.1
78793;SHT31;68134;51.984;5.652;2023-05-07T04:56:58;17.2;72.3
78793;SHT31;68134;51.984;5.652;2023-05-07T04:59:26;17.2;72.1
78793;SHT31;68134;51.984;5.652;2023-05-07T05:01:55;17.2;72.2
78793;SHT31;68134;51.984;5.652;2023-05-07T05:04:24;17.2;71.9
78793;SHT31;68134;51.984;5.652;2023-05-07T05:06:52;17.2;71.7
78793;SHT31;68134;51.984;5.652;2023-05-07T05:09:20;17.2;71.7
78793;SHT31;68134;51.984;5.652;2023-05-07T05:11:49;17.2;71.4
78793;SHT31;68134;51.984;5.652;2023-05-07T05:14:18;17.2;71.9
78793;SHT31;68134;51.984;5.652;2023-05-07T05:16:47;17.1;71.7
78793;SHT31;68134;51.984;5.652;2023-05-07T05:19:17;17.1;72.2
78793;SHT31;68134;51.984;5.652;2023-05-07T05:21:46;17.1;72.2
78793;SHT31;68134;51.984;5.652;2023-05-07T05:24:14;17.1;72.1
78793;SHT31;68134;51.984;5.652;2023-05-07T05:26:43;17.1;72.2
78793;SHT31;68134;51.984;5.652;2023-05-07T05:29:12;17.1;71.9
78793;SHT31;68134;51.984;5.652;2023-05-07T05:31:40;17.1;72.2
78793;SHT31;68134;51.984;5.652;2023-05-07T05:34:09;17.1;71.9
78793;SHT31;68134;51.984;5.652;2023-05-07T05:36:38;17.1;72.8
78793;SHT31;68134;51.984;5.652;2023-05-07T05:39:06;17.1;72.4
78793;SHT31;68134;51.984;5.652;2023-05-07T05:41:35;17.1;72.4
78793;SHT31;68134;51.984;5.652;2023-05-07T05:44:03;17.2;72.6
78793;SHT31;68134;51.984;5.652;2023-05-07T05:46:32;17.2;72.7
78793;SHT31;68134;51.984;5.652;2023-05-07T05:49:02;17.2;72.6
78793;SHT31;68134;51.984;5.652;2023-05-07T05:51:31;17.2;72.8
78793;SHT31;68134;51.984;5.652;2023-05-07T05:53:59;17.2;72.2
78793;SHT31;68134;51.984;5.652;2023-05-07T05:56:28;17.3;72.2
78793;SHT31;68134;51.984;5.652;2023-05-07T05:58:57;17.3;72.0
78793;SHT31;68134;51.984;5.652;2023-05-07T06:01:25;17.3;72.0
78793;SHT31;68134;51.984;5.652;2023-05-07T06:03:56;17.3;72.1
78793;SHT31;68134;51.984;5.652;2023-05-07T06:06:24;17.3;72.3
78793;SHT31;68134;51.984;5.652;2023-05-07T06:08:53;17.4;72.2
78793;SHT31;68134;51.984;5.652;2023-05-07T06:11:22;17.4;72.2
78793;SHT31;68134;51.984;5.652;2023-05-07T06:13:51;17.4;72.4
78793;SHT31;68134;51.984;5.652;2023-05-07T06:16:20;17.4;72.1
78793;SHT31;68134;51.984;5.652;2023-05-07T06:18:48;17.4;71.7
78793;SHT31;68134;51.984;5.652;2023-05-07T06:21:17;17.4;72.2
78793;SHT31;68134;51.984;5.652;2023-05-07T06:23:47;17.4;72.8
78793;SHT31;68134;51.984;5.652;2023-05-07T06:26:16;17.4;72.8
78793;SHT31;68134;51.984;5.652;2023-05-07T06:28:44;17.4;72.5
78793;SHT31;68134;51.984;5.652;2023-05-07T06:31:13;17.4;72.7
78793;SHT31;68134;51.984;5.652;2023-05-07T06:33:43;17.5;72.2
78793;SHT31;68134;51.984;5.652;2023-05-07T06:36:15;17.5;72.1
78793;SHT31;68134;51.984;5.652;2023-05-07T06:38:45;17.5;72.8
78793;SHT31;68134;51.984;5.652;2023-05-07T06:41:14;17.5;72.1
78793;SHT31;68134;51.984;5.652;2023-05-07T06:43:42;17.6;72.3
78793;SHT31;68134;51.984;5.652;2023-05-07T06:46:11;17.6;72.6
78793;SHT31;68134;51.984;5.652;2023-05-07T06:48:39;17.7;73.1
78793;SHT31;68134;51.984;5.652;2023-05-07T06:51:08;17.7;72.7
78793;SHT31;68134;51.984;5.652;2023-05-07T06:53:37;17.8;72.7
78793;SHT31;68134;51.984;5.652;2023-05-07T06:56:05;17.9;71.9
78793;SHT31;68134;51.984;5.652;2023-05-07T06:58:34;17.9;71.7
78793;SHT31;68134;51.984;5.652;2023-05-07T07:01:03;18.0;72.2
78793;SHT31;68134;51.984;5.652;2023-05-07T07:03:31;18.0;71.5
78793;SHT31;68134;51.984;5.652;2023-05-07T07:05:59;18.1;70.5
78793;SHT31;68134;51.984;5.652;2023-05-07T07:08:28;18.1;71.0
78793;SHT31;68134;51.984;5.652;2023-05-07T07:10:57;18.2;70.7
78793;SHT31;68134;51.984;5.652;2023-05-07T07:13:25;18.2;70.9
78793;SHT31;68134;51.984;5.652;2023-05-07T07:15:56;18.2;70.5
78793;SHT31;68134;51.984;5.652;2023-05-07T07:18:24;18.2;70.6
78793;SHT31;68134;51.984;5.652;2023-05-07T07:20:53;18.3;71.1
78793;SHT31;68134;51.984;5.652;2023-05-07T07:23:23;18.3;70.4
78793;SHT31;68134;51.984;5.652;2023-05-07T07:25:52;18.3;70.8
78793;SHT31;68134;51.984;5.652;2023-05-07T07:28:24;18.3;70.8
78793;SHT31;68134;51.984;5.652;2023-05-07T07:30:52;18.3;71.4
78793;SHT31;68134;51.984;5.652;2023-05-07T07:33:21;18.4;70.6
78793;SHT31;68134;51.984;5.652;2023-05-07T07:35:49;18.4;71.3
78793;SHT31;68134;51.984;5.652;2023-05-07T07:38:18;18.4;71.3
78793;SHT31;68134;51.984;5.652;2023-05-07T07:40:47;18.5;70.9
78793;SHT31;68134;51.984;5.652;2023-05-07T07:43:16;18.5;70.1
78793;SHT31;68134;51.984;5.652;2023-05-07T07:45:44;18.5;71.1
78793;SHT31;68134;51.984;5.652;2023-05-07T07:48:15;18.6;70.7
78793;SHT31;68134;51.984;5.652;2023-05-07T07:50:43;18.6;70.3
78793;SHT31;68134;51.984;5.652;2023-05-07T07:53:12;18.6;70.0
78793;SHT31;68134;51.984;5.652;2023-05-07T07:55:40;18.7;70.3
78793;SHT31;68134;51.984;5.652;2023-05-07T07:58:09;18.7;70.5
78793;SHT31;68134;51.984;5.652;2023-05-07T08:00:37;18.8;69.8
78793;SHT31;68134;51.984;5.652;2023-05-07T08:03:08;18.9;69.5
78793;SHT31;68134;51.984;5.652;2023-05-07T08:05:37;18.9;69.9
78793;SHT31;68134;51.984;5.652;2023-05-07T08:08:07;19.0;69.1
78793;SHT31;68134;51.984;5.652;2023-05-07T08:10:36;19.0;69.5
78793;SHT31;68134;51.984;5.652;2023-05-07T08:13:06;19.1;68.6
78793;SHT31;68134;51.984;5.652;2023-05-07T08:15:34;19.1;68.2
78793;SHT31;68134;51.984;5.652;2023-05-07T08:18:05;19.1;68.2
78793;SHT31;68134;51.984;5.652;2023-05-07T08:20:34;19.2;68.9
78793;SHT31;68134;51.984;5.652;2023-05-07T08:23:05;19.2;68.8
78793;SHT31;68134;51.984;5.652;2023-05-07T08:25:34;19.3;67.9
78793;SHT31;68134;51.984;5.652;2023-05-07T08:28:04;19.3;68.1
78793;SHT31;68134;51.984;5.652;2023-05-07T08:30:32;19.3;68.6
78793;SHT31;68134;51.984;5.652;2023-05-07T08:33:01;19.4;68.9
78793;SHT31;68134;51.984;5.652;2023-05-07T08:35:30;19.4;68.5
78793;SHT31;68134;51.984;5.652;2023-05-07T08:37:58;19.5;69.1
78793;SHT31;68134;51.984;5.652;2023-05-07T08:40:27;19.5;68.1
78793;SHT31;68134;51.984;5.652;2023-05-07T08:42:57;19.6;70.0
78793;SHT31;68134;51.984;5.652;2023-05-07T08:45:29;19.6;68.3
78793;SHT31;68134;51.984;5.652;2023-05-07T08:48:02;19.7;68.3
78793;SHT31;68134;51.984;5.652;2023-05-07T08:50:31;19.9;67.7
78793;SHT31;68134;51.984;5.652;2023-05-07T08:53:00;20.0;68.8
78793;SHT31;68134;51.984;5.652;2023-05-07T08:55:30;20.1;68.7
78793;SHT31;68134;51.984;5.652;2023-05-07T08:58:00;20.3;66.7
78793;SHT31;68134;51.984;5.652;2023-05-07T09:00:29;20.4;67.2
78793;SHT31;68134;51.984;5.652;2023-05-07T09:02:57;20.5;65.9
78793;SHT31;68134;51.984;5.652;2023-05-07T09:05:27;20.7;63.9
78793;SHT31;68134;51.984;5.652;2023-05-07T09:07:58;20.8;63.1
78793;SHT31;68134;51.984;5.652;2023-05-07T09:10:28;21.0;63.7
78793;SHT31;68134;51.984;5.652;2023-05-07T09:12:57;21.2;63.6
78793;SHT31;68134;51.984;5.652;2023-05-07T09:15:26;21.5;61.4
78793;SHT31;68134;51.984;5.652;2023-05-07T09:17:59;21.8;59.4
78793;SHT31;68134;51.984;5.652;2023-05-07T09:20:30;22.3;58.5
78793;SHT31;68134;51.984;5.652;2023-05-07T09:22:59;22.6;56.7
78793;SHT31;68134;51.984;5.652;2023-05-07T09:25:31;22.8;56.7
78793;SHT31;68134;51.984;5.652;2023-05-07T09:28:01;23.0;57.0
78793;SHT31;68134;51.984;5.652;2023-05-07T09:30:31;23.2;56.5
78793;SHT31;68134;51.984;5.652;2023-05-07T09:33:02;23.3;56.4
78793;SHT31;68134;51.984;5.652;2023-05-07T09:35:31;23.4;54.4
78793;SHT31;68134;51.984;5.652;2023-05-07T09:38:01;23.4;54.8
78793;SHT31;68134;51.984;5.652;2023-05-07T09:40:30;23.5;54.6
78793;SHT31;68134;51.984;5.652;2023-05-07T09:43:12;23.5;53.4
78793;SHT31;68134;51.984;5.652;2023-05-07T09:45:41;23.5;53.8
78793;SHT31;68134;51.984;5.652;2023-05-07T09:48:12;23.5;53.3
78793;SHT31;68134;51.984;5.652;2023-05-07T09:50:49;23.5;52.0
78793;SHT31;68134;51.984;5.652;2023-05-07T09:53:22;23.5;53.2
78793;SHT31;68134;51.984;5.652;2023-05-07T09:55:52;23.5;53.6
78793;SHT31;68134;51.984;5.652;2023-05-07T09:58:22;23.5;52.3
78793;SHT31;68134;51.984;5.652;2023-05-07T10:00:51;23.5;51.7
78793;SHT31;68134;51.984;5.652;2023-05-07T10:03:22;23.4;50.4
78793;SHT31;68134;51.984;5.652;2023-05-07T10:05:53;23.4;51.0
78793;SHT31;68134;51.984;5.652;2023-05-07T10:08:22;23.3;52.3
78793;SHT31;68134;51.984;5.652;2023-05-07T10:10:51;23.3;53.0
78793;SHT31;68134;51.984;5.652;2023-05-07T10:13:21;23.2;53.4
78793;SHT31;68134;51.984;5.652;2023-05-07T10:15:50;23.2;52.8
78793;SHT31;68134;51.984;5.652;2023-05-07T10:18:20;23.2;52.9
78793;SHT31;68134;51.984;5.652;2023-05-07T10:21:01;23.2;52.7
78793;SHT31;68134;51.984;5.652;2023-05-07T10:23:31;23.3;52.2
78793;SHT31;68134;51.984;5.652;2023-05-07T10:26:03;23.3;53.0
78793;SHT31;68134;51.984;5.652;2023-05-07T10:28:37;23.3;52.0
78793;SHT31;68134;51.984;5.652;2023-05-07T10:31:18;23.3;53.7
78793;SHT31;68134;51.984;5.652;2023-05-07T10:33:51;23.3;53.0
78793;SHT31;68134;51.984;5.652;2023-05-07T10:36:22;23.4;52.8
78793;SHT31;68134;51.984;5.652;2023-05-07T10:38:52;23.4;52.3
78793;SHT31;68134;51.984;5.652;2023-05-07T10:41:21;23.4;53.0
78793;SHT31;68134;51.984;5.652;2023-05-07T10:43:49;23.4;51.5
78793;SHT31;68134;51.984;5.652;2023-05-07T10:46:19;23.5;51.9
78793;SHT31;68134;51.984;5.652;2023-05-07T10:49:08;23.5;52.7
78793;SHT31;68134;51.984;5.652;2023-05-07T10:51:38;23.5;51.8
78793;SHT31;68134;51.984;5.652;2023-05-07T10:54:22;23.6;52.9
78793;SHT31;68134;51.984;5.652;2023-05-07T10:56:54;23.7;53.2
78793;SHT31;68134;51.984;5.652;2023-05-07T10:59:34;23.9;51.9
78793;SHT31;68134;51.984;5.652;2023-05-07T11:02:08;24.0;50.8
78793;SHT31;68134;51.984;5.652;2023-05-07T11:04:38;24.1;51.0
78793;SHT31;68134;51.984;5.652;2023-05-07T11:07:24;24.3;48.8
78793;SHT31;68134;51.984;5.652;2023-05-07T11:09:56;24.4;48.6
78793;SHT31;68134;51.984;5.652;2023-05-07T11:12:48;24.4;49.4
78793;SHT31;68134;51.984;5.652;2023-05-07T11:15:41;24.5;49.5
78793;SHT31;68134;51.984;5.652;2023-05-07T11:18:12;24.6;49.9
78793;SHT31;68134;51.984;5.652;2023-05-07T11:20:52;24.6;49.4
78793;SHT31;68134;51.984;5.652;2023-05-07T11:23:59;24.7;49.7
78793;SHT31;68134;51.984;5.652;2023-05-07T11:26:29;24.8;48.2
78793;SHT31;68134;51.984;5.652;2023-05-07T11:29:00;24.9;50.6
78793;SHT31;68134;51.984;5.652;2023-05-07T11:31:28;25.0;47.7
78793;SHT31;68134;51.984;5.652;2023-05-07T11:33:58;25.1;49.0
78793;SHT31;68134;51.984;5.652;2023-05-07T11:36:32;25.1;47.7
78793;SHT31;68134;51.984;5.652;2023-05-07T11:39:01;25.2;48.9
78793;SHT31;68134;51.984;5.652;2023-05-07T11:41:38;25.2;49.0
78793;SHT31;68134;51.984;5.652;2023-05-07T11:44:09;25.2;49.4
78793;SHT31;68134;51.984;5.652;2023-05-07T11:46:44;25.2;47.5
78793;SHT31;68134;51.984;5.652;2023-05-07T11:49:13;25.3;46.4
78793;SHT31;68134;51.984;5.652;2023-05-07T11:51:42;25.2;45.5
78793;SHT31;68134;51.984;5.652;2023-05-07T11:54:15;25.2;46.9
78793;SHT31;68134;51.984;5.652;2023-05-07T11:56:44;25.1;48.6
78793;SHT31;68134;51.984;5.652;2023-05-07T11:59:18;25.1;47.5
78793;SHT31;68134;51.984;5.652;2023-05-07T12:01:47;25.1;47.8
78793;SHT31;68134;51.984;5.652;2023-05-07T12:04:20;25.0;48.5
78793;SHT31;68134;51.984;5.652;2023-05-07T12:06:53;25.0;48.5
78793;SHT31;68134;51.984;5.652;2023-05-07T12:09:24;25.0;49.1
78793;SHT31;68134;51.984;5.652;2023-05-07T12:11:53;25.0;47.8
78793;SHT31;68134;51.984;5.652;2023-05-07T12:14:27;25.0;49.1
78793;SHT31;68134;51.984;5.652;2023-05-07T12:16:56;25.0;46.8
78793;SHT31;68134;51.984;5.652;2023-05-07T12:19:27;25.0;47.4
78793;SHT31;68134;51.984;5.652;2023-05-07T12:21:56;25.0;48.4
78793;SHT31;68134;51.984;5.652;2023-05-07T12:24:25;25.1;48.3
78793;SHT31;68134;51.984;5.652;2023-05-07T12:26:54;25.1;47.2
78793;SHT31;68134;51.984;5.652;2023-05-07T12:29:23;25.2;46.0
78793;SHT31;68134;51.984;5.652;2023-05-07T12:31:52;25.4;45.7
78793;SHT31;68134;51.984;5.652;2023-05-07T12:34:22;25.7;47.0
78793;SHT31;68134;51.984;5.652;2023-05-07T12:36:51;26.1;44.5
78793;SHT31;68134;51.984;5.652;2023-05-07T12:39:19;26.6;42.8
78793;SHT31;68134;51.984;5.652;2023-05-07T12:41:54;26.9;43.0
78793;SHT31;68134;51.984;5.652;2023-05-07T12:44:28;27.1;42.4
78793;SHT31;68134;51.984;5.652;2023-05-07T12:46:57;27.4;43.1
78793;SHT31;68134;51.984;5.652;2023-05-07T12:49:28;27.6;41.1
78793;SHT31;68134;51.984;5.652;2023-05-07T12:52:00;27.8;41.4
78793;SHT31;68134;51.984;5.652;2023-05-07T12:54:33;27.8;41.5
78793;SHT31;68134;51.984;5.652;2023-05-07T12:57:03;28.0;42.2
78793;SHT31;68134;51.984;5.652;2023-05-07T12:59:33;28.1;42.1
78793;SHT31;68134;51.984;5.652;2023-05-07T13:02:02;28.2;41.3
78793;SHT31;68134;51.984;5.652;2023-05-07T13:04:31;28.2;40.9
78793;SHT31;68134;51.984;5.652;2023-05-07T13:07:00;28.2;39.8
78793;SHT31;68134;51.984;5.652;2023-05-07T13:09:31;28.1;40.4
78793;SHT31;68134;51.984;5.652;2023-05-07T13:11:59;28.0;40.1
78793;SHT31;68134;51.984;5.652;2023-05-07T13:14:28;27.9;39.6
78793;SHT31;68134;51.984;5.652;2023-05-07T13:16:56;27.8;39.7
78793;SHT31;68134;51.984;5.652;2023-05-07T13:19:25;27.7;40.7
78793;SHT31;68134;51.984;5.652;2023-05-07T13:21:53;27.5;40.5
78793;SHT31;68134;51.984;5.652;2023-05-07T13:24:22;27.5;41.2
78793;SHT31;68134;51.984;5.652;2023-05-07T13:26:50;27.4;40.4
78793;SHT31;68134;51.984;5.652;2023-05-07T13:29:21;27.3;41.3
78793;SHT31;68134;51.984;5.652;2023-05-07T13:31:54;27.2;40.3
78793;SHT31;68134;51.984;5.652;2023-05-07T13:34:23;27.1;41.1
78793;SHT31;68134;51.984;5.652;2023-05-07T13:36:52;27.1;42.1
78793;SHT31;68134;51.984;5.652;2023-05-07T13:39:21;27.0;43.0
78793;SHT31;68134;51.984;5.652;2023-05-07T13:41:49;27.0;42.3
78793;SHT31;68134;51.984;5.652;2023-05-07T13:44:18;27.1;42.5
78793;SHT31;68134;51.984;5.652;2023-05-07T13:46:47;27.1;41.1
78793;SHT31;68134;51.984;5.652;2023-05-07T13:49:15;27.2;41.1
78793;SHT31;68134;51.984;5.652;2023-05-07T13:51:44;27.3;40.9
78793;SHT31;68134;51.984;5.652;2023-05-07T13:54:12;27.3;41.4
78793;SHT31;68134;51.984;5.652;2023-05-07T13:56:42;27.3;41.0
78793;SHT31;68134;51.984;5.652;2023-05-07T13:59:10;27.3;40.8
78793;SHT31;68134;51.984;5.652;2023-05-07T14:01:40;27.3;40.8
78793;SHT31;68134;51.984;5.652;2023-05-07T14:04:09;27.3;40.4
78793;SHT31;68134;51.984;5.652;2023-05-07T14:06:37;27.3;39.6
78793;SHT31;68134;51.984;5.652;2023-05-07T14:09:06;27.2;41.5
78793;SHT31;68134;51.984;5.652;2023-05-07T14:11:34;27.2;41.7
78793;SHT31;68134;51.984;5.652;2023-05-07T14:14:03;27.2;41.5
78793;SHT31;68134;51.984;5.652;2023-05-07T14:16:31;27.2;41.2
78793;SHT31;68134;51.984;5.652;2023-05-07T14:19:00;27.3;41.4
78793;SHT31;68134;51.984;5.652;2023-05-07T14:21:28;27.2;41.8
78793;SHT31;68134;51.984;5.652;2023-05-07T14:23:57;27.2;41.9
78793;SHT31;68134;51.984;5.652;2023-05-07T14:26:26;27.1;42.4
78793;SHT31;68134;51.984;5.652;2023-05-07T14:28:57;27.0;43.0
78793;SHT31;68134;51.984;5.652;2023-05-07T14:31:26;26.8;43.5
78793;SHT31;68134;51.984;5.652;2023-05-07T14:33:54;26.7;43.6
78793;SHT31;68134;51.984;5.652;2023-05-07T14:36:24;26.6;43.9
78793;SHT31;68134;51.984;5.652;2023-05-07T14:38:53;26.5;44.1
78793;SHT31;68134;51.984;5.652;2023-05-07T14:41:23;26.5;44.4
78793;SHT31;68134;51.984;5.652;2023-05-07T14:43:51;26.4;44.8
78793;SHT31;68134;51.984;5.652;2023-05-07T14:46:20;26.4;44.1
78793;SHT31;68134;51.984;5.652;2023-05-07T14:48:48;26.3;44.5
78793;SHT31;68134;51.984;5.652;2023-05-07T14:51:17;26.3;44.8
78793;SHT31;68134;51.984;5.652;2023-05-07T14:53:47;26.3;44.7
78793;SHT31;68134;51.984;5.652;2023-05-07T14:56:16;26.3;45.0
78793;SHT31;68134;51.984;5.652;2023-05-07T14:58:46;26.2;45.0
78793;SHT31;68134;51.984;5.652;2023-05-07T15:01:17;26.2;45.7
78793;SHT31;68134;51.984;5.652;2023-05-07T15:03:46;26.2;46.8
78793;SHT31;68134;51.984;5.652;2023-05-07T15:06:14;26.2;44.9
78793;SHT31;68134;51.984;5.652;2023-05-07T15:08:43;26.2;45.0
78793;SHT31;68134;51.984;5.652;2023-05-07T15:11:12;26.2;44.8
78793;SHT31;68134;51.984;5.652;2023-05-07T15:13:42;26.2;45.2
78793;SHT31;68134;51.984;5.652;2023-05-07T15:16:13;26.2;44.9
78793;SHT31;68134;51.984;5.652;2023-05-07T15:18:42;26.1;44.9
78793;SHT31;68134;51.984;5.652;2023-05-07T15:21:11;26.1;44.6
78793;SHT31;68134;51.984;5.652;2023-05-07T15:23:41;26.0;44.7
78793;SHT31;68134;51.984;5.652;2023-05-07T15:26:10;25.7;44.7
78793;SHT31;68134;51.984;5.652;2023-05-07T15:28:39;25.5;43.9
78793;SHT31;68134;51.984;5.652;2023-05-07T15:31:08;25.1;44.1
78793;SHT31;68134;51.984;5.652;2023-05-07T15:33:37;24.8;44.2
78793;SHT31;68134;51.984;5.652;2023-05-07T15:36:07;24.5;45.2
78793;SHT31;68134;51.984;5.652;2023-05-07T15:38:36;24.2;45.7
78793;SHT31;68134;51.984;5.652;2023-05-07T15:41:04;23.9;46.6
78793;SHT31;68134;51.984;5.652;2023-05-07T15:43:35;23.7;47.4
78793;SHT31;68134;51.984;5.652;2023-05-07T15:46:08;23.4;48.4
78793;SHT31;68134;51.984;5.652;2023-05-07T15:48:37;23.2;49.6
78793;SHT31;68134;51.984;5.652;2023-05-07T15:51:06;23.0;51.4
78793;SHT31;68134;51.984;5.652;2023-05-07T15:53:35;22.8;52.8
78793;SHT31;68134;51.984;5.652;2023-05-07T15:56:07;22.6;53.8
78793;SHT31;68134;51.984;5.652;2023-05-07T15:58:36;22.4;55.3
78793;SHT31;68134;51.984;5.652;2023-05-07T16:01:05;22.2;55.6
78793;SHT31;68134;51.984;5.652;2023-05-07T16:03:35;22.0;57.0
78793;SHT31;68134;51.984;5.652;2023-05-07T16:06:05;21.9;56.8
78793;SHT31;68134;51.984;5.652;2023-05-07T16:08:36;21.8;58.9
78793;SHT31;68134;51.984;5.652;2023-05-07T16:11:05;21.7;59.1
78793;SHT31;68134;51.984;5.652;2023-05-07T16:13:35;21.7;59.3
78793;SHT31;68134;51.984;5.652;2023-05-07T16:16:04;21.6;58.6
78793;SHT31;68134;51.984;5.652;2023-05-07T16:18:34;21.5;60.5